createdAt,value
2023-03-29T08:50:52.264Z,4.69
2023-03-29T08:56:02.939Z,4.61
2023-03-29T09:01:11.290Z,4.48
2023-03-29T09:06:20.457Z,4.36
2023-03-29T09:11:52.457Z,4.50
2023-03-29T09:17:05.616Z,4.39
2023-03-29T09:22:22.961Z,4.58
2023-03-29T09:27:34.631Z,4.69
2023-03-29T09:32:52.496Z,4.60
2023-03-29T09:37:59.111Z,4.69
2023-03-29T09:43:11.046Z,4.68
2023-03-29T09:48:19.970Z,4.78
2023-03-29T09:53:26.821Z,4.80
2023-03-29T09:58:32.864Z,4.88
2023-03-29T10:03:41.098Z,4.88
2023-03-29T10:08:54.633Z,4.91
2023-03-29T10:14:06.088Z,4.95
2023-03-29T10:19:24.231Z,4.94
2023-03-29T10:24:30.726Z,5.01
2023-03-29T10:29:42.882Z,5.15
2023-03-29T10:34:50.750Z,5.20
2023-03-29T10:39:56.990Z,5.27
2023-03-29T10:45:02.902Z,5.35
2023-03-29T10:50:17.107Z,5.38
2023-03-29T10:55:29.648Z,5.41
2023-03-29T11:00:46.691Z,5.49
2023-03-29T11:05:59.658Z,5.59
2023-03-29T11:11:20.668Z,5.69
2023-03-29T11:16:38.638Z,5.79
2023-03-29T11:21:53.874Z,5.82
2023-03-29T11:27:16.684Z,5.89
2023-03-29T11:32:33.575Z,5.96
2023-03-29T11:37:50.072Z,6.04
2023-03-29T11:42:58.644Z,6.16
2023-03-29T11:48:10.956Z,6.34
2023-03-29T11:53:25.169Z,6.40
2023-03-29T11:58:38.221Z,6.48
2023-03-29T12:03:51.197Z,6.52
2023-03-29T12:09:02.634Z,6.55
2023-03-29T12:14:16.191Z,6.55
2023-03-29T12:19:29.254Z,6.61
2023-03-29T12:24:37.467Z,6.63
2023-03-29T12:30:09.151Z,6.67
2023-03-29T12:35:31.538Z,6.85
2023-03-29T12:40:45.466Z,6.89
2023-03-29T12:45:58.408Z,6.95
2023-03-29T12:51:08.679Z,7.03
2023-03-29T12:56:19.665Z,7.07
2023-03-29T13:01:33.692Z,7.10
2023-03-29T13:07:03.114Z,7.18
2023-03-29T13:12:26.704Z,7.27
2023-03-29T13:17:48.104Z,7.28
2023-03-29T13:23:09.861Z,7.33
2023-03-29T13:28:24.003Z,7.31
2023-03-29T13:33:55.043Z,7.38
2023-03-29T13:39:06.531Z,7.37
2023-03-29T13:44:29.890Z,7.44
2023-03-29T13:49:37.296Z,7.54
2023-03-29T13:54:50.469Z,7.66
2023-03-29T14:00:04.737Z,7.74
2023-03-29T14:05:16.772Z,7.68
2023-03-29T14:10:31.369Z,7.70
2023-03-29T14:15:48.484Z,7.75
2023-03-29T14:20:56.300Z,7.87
2023-03-29T14:26:13.090Z,7.97
2023-03-29T14:31:24.782Z,8.11
2023-03-29T14:36:33.481Z,8.14
2023-03-29T14:41:42.090Z,8.28
2023-03-29T14:46:48.625Z,8.39
2023-03-29T14:51:55.434Z,8.50
2023-03-29T14:57:06.077Z,8.59
2023-03-29T15:02:27.496Z,8.52
2023-03-29T15:07:36.473Z,8.39
2023-03-29T15:12:45.935Z,8.30
2023-03-29T15:17:52.880Z,8.14
2023-03-29T15:23:04.126Z,8.06
2023-03-29T15:28:27.937Z,8.06
2023-03-29T15:33:39.526Z,7.97
2023-03-29T15:38:50.032Z,7.90
2023-03-29T15:43:55.960Z,7.83
2023-03-29T15:49:02.008Z,7.78
2023-03-29T15:54:08.779Z,7.76
2023-03-29T15:59:14.893Z,7.69
2023-03-29T16:04:22.484Z,7.57
2023-03-29T16:09:29.066Z,7.47
2023-03-29T16:14:34.892Z,7.36
2023-03-29T16:19:40.654Z,7.28
2023-03-29T16:24:46.391Z,7.23
2023-03-29T16:29:52.032Z,7.22
2023-03-29T16:34:58.542Z,7.22
2023-03-29T16:40:06.999Z,7.19
2023-03-29T16:45:16.229Z,7.13
2023-03-29T16:50:22.364Z,7.08
2023-03-29T16:55:28.148Z,7.03
2023-03-29T17:00:34.462Z,6.98
2023-03-29T17:05:41.109Z,6.91
2023-03-29T17:10:47.171Z,6.82
2023-03-29T17:15:54.726Z,6.72
2023-03-29T17:21:01.304Z,6.66
2023-03-29T17:26:08.176Z,6.59
2023-03-29T17:31:14.133Z,6.50
2023-03-29T17:36:23.420Z,6.42
2023-03-29T17:41:31.051Z,6.37
2023-03-29T17:46:38.142Z,6.31
2023-03-29T17:51:44.135Z,6.25
2023-03-29T17:56:50.225Z,6.19
2023-03-29T18:01:57.003Z,6.14
2023-03-29T18:07:02.899Z,6.11
2023-03-29T18:12:09.416Z,6.06
2023-03-29T18:17:15.555Z,6.03
2023-03-29T18:22:23.646Z,5.99
2023-03-29T18:27:29.512Z,5.96
2023-03-29T18:32:35.389Z,5.93
2023-03-29T18:37:41.159Z,5.93
2023-03-29T18:42:47.206Z,5.91
2023-03-29T18:47:53.315Z,5.87
2023-03-29T18:52:59.007Z,5.85
2023-03-29T18:58:05.098Z,5.84
2023-03-29T19:03:12.136Z,5.84
2023-03-29T19:08:17.956Z,5.81
2023-03-29T19:13:23.741Z,5.82
2023-03-29T19:18:29.943Z,5.82
2023-03-29T19:23:35.891Z,5.80
2023-03-29T19:28:41.826Z,5.81
2023-03-29T19:33:48.938Z,5.82
2023-03-29T19:38:55.513Z,5.83
2023-03-29T19:44:01.431Z,5.83
2023-03-29T19:49:09.292Z,5.82
2023-03-29T19:54:17.071Z,5.79
2023-03-29T19:59:22.945Z,5.77
2023-03-29T20:04:29.416Z,5.74
2023-03-29T20:09:35.447Z,5.66
2023-03-29T20:14:42.853Z,5.53
2023-03-29T20:19:48.564Z,5.42
2023-03-29T20:24:54.425Z,5.32
2023-03-29T20:30:00.688Z,5.28
2023-03-29T20:35:08.227Z,5.27
2023-03-29T20:40:15.362Z,5.30
2023-03-29T20:45:21.133Z,5.35
2023-03-29T20:50:28.199Z,5.42
2023-03-29T20:55:35.087Z,5.49
2023-03-29T21:00:41.061Z,5.57
2023-03-29T21:05:46.813Z,5.64
2023-03-29T21:10:52.519Z,5.70
2023-03-29T21:15:58.279Z,5.74
2023-03-29T21:21:07.765Z,5.78
2023-03-29T21:26:13.718Z,5.86
2023-03-29T21:31:20.152Z,5.91
2023-03-29T21:36:26.520Z,5.93
2023-03-29T21:41:32.541Z,5.96
2023-03-29T21:46:38.806Z,5.99
2023-03-29T21:51:44.616Z,6.03
2023-03-29T21:56:50.400Z,6.06
2023-03-29T22:01:56.091Z,6.09
2023-03-29T22:07:02.274Z,6.12
2023-03-29T22:12:09.621Z,6.13
2023-03-29T22:17:15.648Z,6.14
2023-03-29T22:22:21.487Z,6.14
2023-03-29T22:27:27.310Z,6.14
2023-03-29T22:32:33.689Z,6.15
2023-03-29T22:37:43.736Z,6.16
2023-03-29T22:42:49.488Z,6.16
2023-03-29T22:47:55.388Z,6.14
2023-03-29T22:53:01.356Z,6.13
2023-03-29T22:58:07.355Z,6.11
2023-03-29T23:03:13.288Z,6.09
2023-03-29T23:08:19.028Z,6.07
2023-03-29T23:13:26.015Z,6.05
2023-03-29T23:18:34.312Z,6.03
2023-03-29T23:23:40.485Z,6.01
2023-03-29T23:28:46.193Z,5.99
2023-03-29T23:33:52.626Z,5.98
2023-03-29T23:38:59.104Z,5.96
2023-03-29T23:44:04.847Z,5.93
2023-03-29T23:49:11.177Z,5.91
2023-03-29T23:54:17.375Z,5.88
2023-03-29T23:59:26.550Z,5.87
